sensor_id;sensor_type;location;lat;lon;timestamp;P1;durP1;ratioP1;P2;durP2;ratioP2
49962;SDS011;36180;57.678;11.910;2024-01-30T00:02:04;326.67;;;45.80;;
49962;SDS011;36180;57.678;11.910;2024-01-30T00:04:31;328.80;;;48.63;;
49962;SDS011;36180;57.678;11.910;2024-01-30T00:06:58;317.52;;;47.90;;
49962;SDS011;36180;57.678;11.910;2024-01-30T00:09:25;302.27;;;45.30;;
49962;SDS011;36180;57.678;11.910;2024-01-30T00:11:52;283.45;;;39.92;;
49962;SDS011;36180;57.678;11.910;2024-01-30T00:14:20;262.75;;;40.25;;
49962;SDS011;36180;57.678;11.910;2024-01-30T00:16:47;213.32;;;33.63;;
49962;SDS011;36180;57.678;11.910;2024-01-30T00:19:14;223.50;;;35.30;;
49962;SDS011;36180;57.678;11.910;2024-01-30T00:21:41;296.08;;;36.17;;
49962;SDS011;36180;57.678;11.910;2024-01-30T00:24:08;226.25;;;35.03;;
49962;SDS011;36180;57.678;11.910;2024-01-30T00:26:35;254.75;;;36.80;;
49962;SDS011;36180;57.678;11.910;2024-01-30T00:29:02;212.13;;;37.38;;
49962;SDS011;36180;57.678;11.910;2024-01-30T00:31:31;185.15;;;39.97;;
49962;SDS011;36180;57.678;11.910;2024-01-30T00:33:58;233.80;;;43.55;;
49962;SDS011;36180;57.678;11.910;2024-01-30T00:36:24;263.05;;;44.65;;
49962;SDS011;36180;57.678;11.910;2024-01-30T00:38:52;217.02;;;42.58;;
49962;SDS011;36180;57.678;11.910;2024-01-30T00:41:19;254.48;;;43.92;;
49962;SDS011;36180;57.678;11.910;2024-01-30T00:43:46;276.23;;;44.30;;
49962;SDS011;36180;57.678;11.910;2024-01-30T00:46:13;169.38;;;40.28;;
49962;SDS011;36180;57.678;11.910;2024-01-30T00:48:42;217.60;;;40.53;;
49962;SDS011;36180;57.678;11.910;2024-01-30T00:51:09;199.40;;;37.47;;
49962;SDS011;36180;57.678;11.910;2024-01-30T00:53:36;188.60;;;38.78;;
49962;SDS011;36180;57.678;11.910;2024-01-30T00:56:03;218.27;;;39.28;;
49962;SDS011;36180;57.678;11.910;2024-01-30T00:58:30;198.32;;;42.03;;
49962;SDS011;36180;57.678;11.910;2024-01-30T01:00:57;229.52;;;42.88;;
49962;SDS011;36180;57.678;11.910;2024-01-30T01:03:24;235.60;;;43.40;;
49962;SDS011;36180;57.678;11.910;2024-01-30T01:05:52;216.57;;;44.67;;
49962;SDS011;36180;57.678;11.910;2024-01-30T01:08:19;246.38;;;44.08;;
49962;SDS011;36180;57.678;11.910;2024-01-30T01:10:46;196.15;;;36.75;;
49962;SDS011;36180;57.678;11.910;2024-01-30T01:13:13;172.20;;;33.58;;
49962;SDS011;36180;57.678;11.910;2024-01-30T01:15:40;170.98;;;31.35;;
49962;SDS011;36180;57.678;11.910;2024-01-30T01:18:07;152.40;;;28.50;;
49962;SDS011;36180;57.678;11.910;2024-01-30T01:20:34;130.40;;;29.52;;
49962;SDS011;36180;57.678;11.910;2024-01-30T01:23:03;128.23;;;28.92;;
49962;SDS011;36180;57.678;11.910;2024-01-30T01:25:30;128.23;;;28.00;;
49962;SDS011;36180;57.678;11.910;2024-01-30T01:27:57;117.32;;;27.23;;
49962;SDS011;36180;57.678;11.910;2024-01-30T01:30:26;118.32;;;27.65;;
49962;SDS011;36180;57.678;11.910;2024-01-30T01:32:54;124.10;;;28.27;;
49962;SDS011;36180;57.678;11.910;2024-01-30T01:35:22;120.07;;;29.42;;
49962;SDS011;36180;57.678;11.910;2024-01-30T01:37:50;128.25;;;29.20;;
49962;SDS011;36180;57.678;11.910;2024-01-30T01:40:22;122.80;;;30.52;;
49962;SDS011;36180;57.678;11.910;2024-01-30T01:42:49;136.60;;;32.30;;
49962;SDS011;36180;57.678;11.910;2024-01-30T01:45:17;114.60;;;31.83;;
49962;SDS011;36180;57.678;11.910;2024-01-30T01:47:44;116.82;;;32.72;;
49962;SDS011;36180;57.678;11.910;2024-01-30T01:50:13;133.50;;;35.03;;
49962;SDS011;36180;57.678;11.910;2024-01-30T01:52:43;148.02;;;35.28;;
49962;SDS011;36180;57.678;11.910;2024-01-30T01:55:11;150.20;;;37.42;;
49962;SDS011;36180;57.678;11.910;2024-01-30T01:57:39;141.57;;;36.92;;
49962;SDS011;36180;57.678;11.910;2024-01-30T02:00:07;161.30;;;37.50;;
49962;SDS011;36180;57.678;11.910;2024-01-30T02:02:36;141.10;;;39.67;;
49962;SDS011;36180;57.678;11.910;2024-01-30T02:05:03;120.72;;;35.33;;
49962;SDS011;36180;57.678;11.910;2024-01-30T02:07:30;130.50;;;41.03;;
49962;SDS011;36180;57.678;11.910;2024-01-30T02:09:57;136.90;;;41.50;;
49962;SDS011;36180;57.678;11.910;2024-01-30T02:12:24;140.77;;;43.80;;
49962;SDS011;36180;57.678;11.910;2024-01-30T02:14:52;136.52;;;44.10;;
49962;SDS011;36180;57.678;11.910;2024-01-30T02:17:20;134.75;;;41.70;;
49962;SDS011;36180;57.678;11.910;2024-01-30T02:19:48;106.20;;;38.17;;
49962;SDS011;36180;57.678;11.910;2024-01-30T02:22:16;116.78;;;38.08;;
49962;SDS011;36180;57.678;11.910;2024-01-30T02:24:44;107.90;;;38.17;;
49962;SDS011;36180;57.678;11.910;2024-01-30T02:27:11;108.47;;;35.17;;
49962;SDS011;36180;57.678;11.910;2024-01-30T02:29:38;117.22;;;35.75;;
49962;SDS011;36180;57.678;11.910;2024-01-30T02:32:05;100.47;;;31.65;;
49962;SDS011;36180;57.678;11.910;2024-01-30T02:34:33;93.32;;;31.98;;
49962;SDS011;36180;57.678;11.910;2024-01-30T02:37:00;99.78;;;31.35;;
49962;SDS011;36180;57.678;11.910;2024-01-30T02:39:28;110.30;;;31.00;;
49962;SDS011;36180;57.678;11.910;2024-01-30T02:41:55;101.00;;;29.90;;
49962;SDS011;36180;57.678;11.910;2024-01-30T02:44:22;83.35;;;25.45;;
49962;SDS011;36180;57.678;11.910;2024-01-30T02:46:49;78.03;;;24.50;;
49962;SDS011;36180;57.678;11.910;2024-01-30T02:49:16;74.43;;;23.10;;
49962;SDS011;36180;57.678;11.910;2024-01-30T02:51:43;84.70;;;23.05;;
49962;SDS011;36180;57.678;11.910;2024-01-30T02:54:10;90.43;;;24.23;;
49962;SDS011;36180;57.678;11.910;2024-01-30T02:56:38;72.68;;;20.92;;
49962;SDS011;36180;57.678;11.910;2024-01-30T02:59:05;84.95;;;22.63;;
49962;SDS011;36180;57.678;11.910;2024-01-30T03:01:32;89.72;;;22.80;;
49962;SDS011;36180;57.678;11.910;2024-01-30T03:03:59;72.95;;;21.40;;
49962;SDS011;36180;57.678;11.910;2024-01-30T03:06:27;83.93;;;22.83;;
49962;SDS011;36180;57.678;11.910;2024-01-30T03:08:54;83.88;;;22.15;;
49962;SDS011;36180;57.678;11.910;2024-01-30T03:11:21;79.28;;;22.30;;
49962;SDS011;36180;57.678;11.910;2024-01-30T03:13:49;79.15;;;22.20;;
49962;SDS011;36180;57.678;11.910;2024-01-30T03:16:16;77.47;;;22.73;;
49962;SDS011;36180;57.678;11.910;2024-01-30T03:18:43;69.63;;;21.65;;
49962;SDS011;36180;57.678;11.910;2024-01-30T03:21:10;79.35;;;21.85;;
49962;SDS011;36180;57.678;11.910;2024-01-30T03:23:37;66.05;;;21.45;;
49962;SDS011;36180;57.678;11.910;2024-01-30T03:26:04;67.00;;;20.48;;
49962;SDS011;36180;57.678;11.910;2024-01-30T03:28:31;81.72;;;23.88;;
49962;SDS011;36180;57.678;11.910;2024-01-30T03:31:00;76.95;;;21.50;;
49962;SDS011;36180;57.678;11.910;2024-01-30T03:33:27;84.63;;;23.75;;
49962;SDS011;36180;57.678;11.910;2024-01-30T03:35:54;76.88;;;22.48;;
49962;SDS011;36180;57.678;11.910;2024-01-30T03:38:21;74.95;;;22.02;;
49962;SDS011;36180;57.678;11.910;2024-01-30T03:40:48;82.03;;;23.27;;
49962;SDS011;36180;57.678;11.910;2024-01-30T03:43:15;82.97;;;23.20;;
49962;SDS011;36180;57.678;11.910;2024-01-30T03:45:42;84.65;;;22.15;;
49962;SDS011;36180;57.678;11.910;2024-01-30T03:48:10;76.95;;;21.50;;
49962;SDS011;36180;57.678;11.910;2024-01-30T03:50:37;73.13;;;21.10;;
49962;SDS011;36180;57.678;11.910;2024-01-30T03:53:04;82.43;;;22.95;;
49962;SDS011;36180;57.678;11.910;2024-01-30T03:55:31;81.75;;;21.83;;
49962;SDS011;36180;57.678;11.910;2024-01-30T03:57:58;78.88;;;21.80;;
49962;SDS011;36180;57.678;11.910;2024-01-30T04:00:25;80.68;;;20.90;;
49962;SDS011;36180;57.678;11.910;2024-01-30T04:02:52;79.18;;;21.70;;
49962;SDS011;36180;57.678;11.910;2024-01-30T04:05:21;64.20;;;18.75;;
49962;SDS011;36180;57.678;11.910;2024-01-30T04:07:47;83.20;;;22.17;;
49962;SDS011;36180;57.678;11.910;2024-01-30T04:10:14;66.50;;;21.08;;
49962;SDS011;36180;57.678;11.910;2024-01-30T04:12:42;74.78;;;21.33;;
49962;SDS011;36180;57.678;11.910;2024-01-30T04:15:09;64.35;;;19.67;;
49962;SDS011;36180;57.678;11.910;2024-01-30T04:17:36;71.68;;;21.02;;
49962;SDS011;36180;57.678;11.910;2024-01-30T04:20:04;76.88;;;19.83;;
49962;SDS011;36180;57.678;11.910;2024-01-30T04:22:33;66.60;;;19.95;;
49962;SDS011;36180;57.678;11.910;2024-01-30T04:25:00;68.43;;;19.25;;
49962;SDS011;36180;57.678;11.910;2024-01-30T04:27:28;68.47;;;19.80;;
49962;SDS011;36180;57.678;11.910;2024-01-30T04:29:55;77.88;;;18.45;;
49962;SDS011;36180;57.678;11.910;2024-01-30T04:32:22;89.13;;;19.60;;
49962;SDS011;36180;57.678;11.910;2024-01-30T04:34:49;68.30;;;18.90;;
49962;SDS011;36180;57.678;11.910;2024-01-30T04:37:16;72.13;;;19.33;;
49962;SDS011;36180;57.678;11.910;2024-01-30T04:39:44;81.25;;;19.98;;
49962;SDS011;36180;57.678;11.910;2024-01-30T04:42:11;94.43;;;21.90;;
49962;SDS011;36180;57.678;11.910;2024-01-30T04:44:38;127.90;;;19.80;;
49962;SDS011;36180;57.678;11.910;2024-01-30T04:47:05;91.05;;;21.15;;
49962;SDS011;36180;57.678;11.910;2024-01-30T04:49:34;92.78;;;20.10;;
49962;SDS011;36180;57.678;11.910;2024-01-30T04:52:01;98.10;;;19.17;;
49962;SDS011;36180;57.678;11.910;2024-01-30T04:54:28;94.78;;;19.05;;
49962;SDS011;36180;57.678;11.910;2024-01-30T04:56:56;68.72;;;18.98;;
49962;SDS011;36180;57.678;11.910;2024-01-30T04:59:23;68.70;;;19.02;;
49962;SDS011;36180;57.678;11.910;2024-01-30T05:01:50;68.28;;;19.58;;
49962;SDS011;36180;57.678;11.910;2024-01-30T05:04:17;79.03;;;20.30;;
49962;SDS011;36180;57.678;11.910;2024-01-30T05:06:44;82.30;;;20.38;;
49962;SDS011;36180;57.678;11.910;2024-01-30T05:09:11;74.88;;;19.65;;
49962;SDS011;36180;57.678;11.910;2024-01-30T05:11:38;68.82;;;19.92;;
49962;SDS011;36180;57.678;11.910;2024-01-30T05:14:07;75.50;;;20.30;;
49962;SDS011;36180;57.678;11.910;2024-01-30T05:16:34;63.97;;;18.92;;
49962;SDS011;36180;57.678;11.910;2024-01-30T05:19:01;69.28;;;20.70;;
49962;SDS011;36180;57.678;11.910;2024-01-30T05:21:28;73.60;;;21.85;;
49962;SDS011;36180;57.678;11.910;2024-01-30T05:23:55;73.15;;;21.88;;
49962;SDS011;36180;57.678;11.910;2024-01-30T05:26:22;79.43;;;19.70;;
49962;SDS011;36180;57.678;11.910;2024-01-30T05:28:49;60.35;;;18.27;;
49962;SDS011;36180;57.678;11.910;2024-01-30T05:31:18;59.67;;;17.38;;
49962;SDS011;36180;57.678;11.910;2024-01-30T05:33:46;72.72;;;19.10;;
49962;SDS011;36180;57.678;11.910;2024-01-30T05:36:13;69.47;;;18.23;;
49962;SDS011;36180;57.678;11.910;2024-01-30T05:38:40;58.22;;;17.23;;
49962;SDS011;36180;57.678;11.910;2024-01-30T05:41:07;57.35;;;16.48;;
49962;SDS011;36180;57.678;11.910;2024-01-30T05:43:35;59.03;;;16.95;;
49962;SDS011;36180;57.678;11.910;2024-01-30T05:46:02;63.00;;;17.95;;
49962;SDS011;36180;57.678;11.910;2024-01-30T05:48:30;58.83;;;17.88;;
49962;SDS011;36180;57.678;11.910;2024-01-30T05:50:58;50.15;;;17.02;;
49962;SDS011;36180;57.678;11.910;2024-01-30T05:53:25;55.50;;;18.30;;
49962;SDS011;36180;57.678;11.910;2024-01-30T05:55:52;62.83;;;19.00;;
49962;SDS011;36180;57.678;11.910;2024-01-30T05:58:19;42.67;;;15.40;;
49962;SDS011;36180;57.678;11.910;2024-01-30T06:00:46;60.72;;;17.83;;
49962;SDS011;36180;57.678;11.910;2024-01-30T06:03:13;56.25;;;16.98;;
49962;SDS011;36180;57.678;11.910;2024-01-30T06:05:42;61.10;;;17.60;;
49962;SDS011;36180;57.678;11.910;2024-01-30T06:08:09;69.07;;;17.80;;
49962;SDS011;36180;57.678;11.910;2024-01-30T06:10:36;66.75;;;18.45;;
49962;SDS011;36180;57.678;11.910;2024-01-30T06:13:04;64.18;;;17.58;;
49962;SDS011;36180;57.678;11.910;2024-01-30T06:15:31;70.78;;;17.23;;
49962;SDS011;36180;57.678;11.910;2024-01-30T06:17:58;65.40;;;18.55;;
49962;SDS011;36180;57.678;11.910;2024-01-30T06:20:25;74.88;;;19.00;;
49962;SDS011;36180;57.678;11.910;2024-01-30T06:22:54;61.67;;;17.67;;
49962;SDS011;36180;57.678;11.910;2024-01-30T06:25:21;90.13;;;19.50;;
49962;SDS011;36180;57.678;11.910;2024-01-30T06:27:47;73.72;;;18.10;;
49962;SDS011;36180;57.678;11.910;2024-01-30T06:30:15;86.95;;;19.25;;
49962;SDS011;36180;57.678;11.910;2024-01-30T06:32:42;88.40;;;18.88;;
49962;SDS011;36180;57.678;11.910;2024-01-30T06:35:09;59.13;;;17.83;;
49962;SDS011;36180;57.678;11.910;2024-01-30T06:37:36;80.65;;;18.73;;
49962;SDS011;36180;57.678;11.910;2024-01-30T06:40:05;106.18;;;19.15;;
49962;SDS011;36180;57.678;11.910;2024-01-30T06:42:33;127.63;;;21.40;;
49962;SDS011;36180;57.678;11.910;2024-01-30T06:45:00;71.97;;;19.35;;
49962;SDS011;36180;57.678;11.910;2024-01-30T06:47:27;143.77;;;21.83;;
49962;SDS011;36180;57.678;11.910;2024-01-30T06:49:56;150.88;;;21.27;;
49962;SDS011;36180;57.678;11.910;2024-01-30T06:52:23;140.00;;;21.80;;
49962;SDS011;36180;57.678;11.910;2024-01-30T06:54:50;91.28;;;19.08;;
49962;SDS011;36180;57.678;11.910;2024-01-30T06:57:18;88.63;;;18.38;;
49962;SDS011;36180;57.678;11.910;2024-01-30T06:59:45;95.75;;;18.23;;
49962;SDS011;36180;57.678;11.910;2024-01-30T07:02:12;123.10;;;19.70;;
49962;SDS011;36180;57.678;11.910;2024-01-30T07:04:39;94.75;;;18.73;;
49962;SDS011;36180;57.678;11.910;2024-01-30T07:07:07;105.28;;;19.88;;
49962;SDS011;36180;57.678;11.910;2024-01-30T07:09:37;95.45;;;19.85;;
49962;SDS011;36180;57.678;11.910;2024-01-30T07:12:05;133.90;;;20.90;;
49962;SDS011;36180;57.678;11.910;2024-01-30T07:14:34;96.90;;;19.75;;
49962;SDS011;36180;57.678;11.910;2024-01-30T07:17:01;84.15;;;20.15;;
49962;SDS011;36180;57.678;11.910;2024-01-30T07:19:28;102.55;;;20.02;;
49962;SDS011;36180;57.678;11.910;2024-01-30T07:21:55;104.35;;;20.10;;
49962;SDS011;36180;57.678;11.910;2024-01-30T07:24:22;78.07;;;20.00;;
49962;SDS011;36180;57.678;11.910;2024-01-30T07:26:49;91.25;;;19.92;;
49962;SDS011;36180;57.678;11.910;2024-01-30T07:29:16;96.45;;;19.92;;
49962;SDS011;36180;57.678;11.910;2024-01-30T07:31:44;84.20;;;20.42;;
49962;SDS011;36180;57.678;11.910;2024-01-30T07:34:11;87.50;;;19.63;;
49962;SDS011;36180;57.678;11.910;2024-01-30T07:36:39;84.85;;;20.27;;
49962;SDS011;36180;57.678;11.910;2024-01-30T07:39:06;72.63;;;20.55;;
49962;SDS011;36180;57.678;11.910;2024-01-30T07:41:32;90.93;;;22.73;;
49962;SDS011;36180;57.678;11.910;2024-01-30T07:44:00;70.75;;;21.20;;
49962;SDS011;36180;57.678;11.910;2024-01-30T07:46:27;80.22;;;22.27;;
49962;SDS011;36180;57.678;11.910;2024-01-30T07:48:55;50.38;;;19.33;;
49962;SDS011;36180;57.678;11.910;2024-01-30T07:51:25;67.10;;;19.90;;
49962;SDS011;36180;57.678;11.910;2024-01-30T07:53:53;69.60;;;20.15;;
49962;SDS011;36180;57.678;11.910;2024-01-30T07:56:23;70.63;;;21.13;;
49962;SDS011;36180;57.678;11.910;2024-01-30T07:58:51;66.80;;;20.83;;
49962;SDS011;36180;57.678;11.910;2024-01-30T08:01:18;70.10;;;21.63;;
49962;SDS011;36180;57.678;11.910;2024-01-30T08:03:45;74.55;;;22.48;;
49962;SDS011;36180;57.678;11.910;2024-01-30T08:06:13;72.38;;;21.25;;
49962;SDS011;36180;57.678;11.910;2024-01-30T08:08:40;78.60;;;20.80;;
49962;SDS011;36180;57.678;11.910;2024-01-30T08:11:07;53.42;;;17.52;;
49962;SDS011;36180;57.678;11.910;2024-01-30T08:13:34;51.28;;;17.38;;
49962;SDS011;36180;57.678;11.910;2024-01-30T08:16:01;51.47;;;17.15;;
49962;SDS011;36180;57.678;11.910;2024-01-30T08:18:29;45.95;;;17.30;;
49962;SDS011;36180;57.678;11.910;2024-01-30T08:20:56;52.40;;;17.33;;
49962;SDS011;36180;57.678;11.910;2024-01-30T08:23:25;58.90;;;16.90;;
49962;SDS011;36180;57.678;11.910;2024-01-30T08:25:51;47.92;;;17.33;;
49962;SDS011;36180;57.678;11.910;2024-01-30T08:28:19;52.70;;;18.52;;
49962;SDS011;36180;57.678;11.910;2024-01-30T08:30:45;64.60;;;19.23;;
49962;SDS011;36180;57.678;11.910;2024-01-30T08:33:12;52.70;;;17.40;;
49962;SDS011;36180;57.678;11.910;2024-01-30T08:35:40;56.28;;;18.23;;
49962;SDS011;36180;57.678;11.910;2024-01-30T08:38:07;49.20;;;19.02;;
49962;SDS011;36180;57.678;11.910;2024-01-30T08:40:35;49.55;;;18.23;;
49962;SDS011;36180;57.678;11.910;2024-01-30T08:43:02;43.65;;;17.48;;
49962;SDS011;36180;57.678;11.910;2024-01-30T08:45:29;43.38;;;17.17;;
49962;SDS011;36180;57.678;11.910;2024-01-30T08:47:56;46.08;;;17.77;;
49962;SDS011;36180;57.678;11.910;2024-01-30T08:50:23;48.53;;;18.02;;
49962;SDS011;36180;57.678;11.910;2024-01-30T08:52:50;50.15;;;18.90;;
49962;SDS011;36180;57.678;11.910;2024-01-30T08:55:17;48.53;;;17.90;;
49962;SDS011;36180;57.678;11.910;2024-01-30T08:57:45;40.83;;;17.45;;
49962;SDS011;36180;57.678;11.910;2024-01-30T09:00:13;51.45;;;19.27;;
49962;SDS011;36180;57.678;11.910;2024-01-30T09:02:41;59.53;;;20.45;;
49962;SDS011;36180;57.678;11.910;2024-01-30T09:05:08;71.18;;;22.77;;
49962;SDS011;36180;57.678;11.910;2024-01-30T09:07:35;65.05;;;20.42;;
49962;SDS011;36180;57.678;11.910;2024-01-30T09:10:02;56.92;;;21.35;;
49962;SDS011;36180;57.678;11.910;2024-01-30T09:12:31;62.50;;;21.17;;
49962;SDS011;36180;57.678;11.910;2024-01-30T09:14:59;62.25;;;20.30;;
49962;SDS011;36180;57.678;11.910;2024-01-30T09:17:26;71.88;;;21.70;;
49962;SDS011;36180;57.678;11.910;2024-01-30T09:19:53;69.70;;;21.67;;
49962;SDS011;36180;57.678;11.910;2024-01-30T09:22:20;61.65;;;20.92;;
49962;SDS011;36180;57.678;11.910;2024-01-30T09:24:47;73.18;;;21.85;;
49962;SDS011;36180;57.678;11.910;2024-01-30T09:27:14;98.72;;;24.00;;
49962;SDS011;36180;57.678;11.910;2024-01-30T09:29:41;91.88;;;21.98;;
49962;SDS011;36180;57.678;11.910;2024-01-30T09:32:09;80.70;;;21.27;;
49962;SDS011;36180;57.678;11.910;2024-01-30T09:34:36;108.10;;;22.67;;
49962;SDS011;36180;57.678;11.910;2024-01-30T09:37:04;104.50;;;20.90;;
49962;SDS011;36180;57.678;11.910;2024-01-30T09:39:31;80.38;;;20.60;;
49962;SDS011;36180;57.678;11.910;2024-01-30T09:42:00;72.97;;;18.98;;
49962;SDS011;36180;57.678;11.910;2024-01-30T09:44:31;85.88;;;22.77;;
49962;SDS011;36180;57.678;11.910;2024-01-30T09:47:02;86.32;;;21.58;;
49962;SDS011;36180;57.678;11.910;2024-01-30T09:49:32;89.57;;;21.33;;
49962;SDS011;36180;57.678;11.910;2024-01-30T09:52:00;83.97;;;20.40;;
49962;SDS011;36180;57.678;11.910;2024-01-30T09:54:28;76.18;;;20.55;;
49962;SDS011;36180;57.678;11.910;2024-01-30T09:56:57;76.40;;;20.10;;
49962;SDS011;36180;57.678;11.910;2024-01-30T09:59:23;79.82;;;20.38;;
49962;SDS011;36180;57.678;11.910;2024-01-30T10:01:51;105.40;;;20.95;;
49962;SDS011;36180;57.678;11.910;2024-01-30T10:04:18;74.03;;;20.23;;
49962;SDS011;36180;57.678;11.910;2024-01-30T10:06:46;131.45;;;23.08;;
49962;SDS011;36180;57.678;11.910;2024-01-30T10:09:14;105.40;;;21.42;;
49962;SDS011;36180;57.678;11.910;2024-01-30T10:11:41;131.95;;;22.30;;
49962;SDS011;36180;57.678;11.910;2024-01-30T10:14:08;143.18;;;21.85;;
49962;SDS011;36180;57.678;11.910;2024-01-30T10:16:35;104.78;;;19.02;;
49962;SDS011;36180;57.678;11.910;2024-01-30T10:19:01;110.72;;;20.02;;
49962;SDS011;36180;57.678;11.910;2024-01-30T10:21:29;86.32;;;18.80;;
49962;SDS011;36180;57.678;11.910;2024-01-30T10:23:58;92.10;;;17.65;;
49962;SDS011;36180;57.678;11.910;2024-01-30T10:26:25;80.90;;;19.30;;
49962;SDS011;36180;57.678;11.910;2024-01-30T10:28:54;101.78;;;20.52;;
49962;SDS011;36180;57.678;11.910;2024-01-30T10:31:21;103.22;;;19.50;;
49962;SDS011;36180;57.678;11.910;2024-01-30T10:33:49;90.75;;;18.90;;
49962;SDS011;36180;57.678;11.910;2024-01-30T10:36:16;83.80;;;19.52;;
49962;SDS011;36180;57.678;11.910;2024-01-30T10:38:44;104.72;;;19.00;;
49962;SDS011;36180;57.678;11.910;2024-01-30T10:41:13;108.35;;;19.67;;
49962;SDS011;36180;57.678;11.910;2024-01-30T10:43:41;71.45;;;17.92;;
49962;SDS011;36180;57.678;11.910;2024-01-30T10:46:10;104.30;;;18.63;;
49962;SDS011;36180;57.678;11.910;2024-01-30T10:48:42;84.53;;;19.23;;
49962;SDS011;36180;57.678;11.910;2024-01-30T10:51:09;86.25;;;18.35;;
49962;SDS011;36180;57.678;11.910;2024-01-30T10:53:38;85.80;;;19.77;;
49962;SDS011;36180;57.678;11.910;2024-01-30T10:56:06;116.13;;;19.80;;
49962;SDS011;36180;57.678;11.910;2024-01-30T10:58:34;130.15;;;21.30;;
49962;SDS011;36180;57.678;11.910;2024-01-30T11:01:01;87.97;;;17.48;;
49962;SDS011;36180;57.678;11.910;2024-01-30T11:03:29;87.13;;;19.13;;
49962;SDS011;36180;57.678;11.910;2024-01-30T11:06:00;107.55;;;19.75;;
49962;SDS011;36180;57.678;11.910;2024-01-30T11:08:28;103.63;;;21.17;;
49962;SDS011;36180;57.678;11.910;2024-01-30T11:10:58;96.72;;;19.13;;
49962;SDS011;36180;57.678;11.910;2024-01-30T11:13:26;109.95;;;20.27;;
49962;SDS011;36180;57.678;11.910;2024-01-30T11:15:56;114.63;;;20.38;;
49962;SDS011;36180;57.678;11.910;2024-01-30T11:18:28;70.68;;;17.70;;
49962;SDS011;36180;57.678;11.910;2024-01-30T11:20:56;94.47;;;19.77;;
49962;SDS011;36180;57.678;11.910;2024-01-30T11:23:24;101.47;;;20.13;;
49962;SDS011;36180;57.678;11.910;2024-01-30T11:25:52;111.32;;;18.92;;
49962;SDS011;36180;57.678;11.910;2024-01-30T11:28:20;93.25;;;18.15;;
49962;SDS011;36180;57.678;11.910;2024-01-30T11:30:48;70.30;;;17.55;;
49962;SDS011;36180;57.678;11.910;2024-01-30T11:33:28;104.70;;;19.50;;
49962;SDS011;36180;57.678;11.910;2024-01-30T11:35:56;89.93;;;18.05;;
49962;SDS011;36180;57.678;11.910;2024-01-30T11:38:25;63.03;;;16.77;;
49962;SDS011;36180;57.678;11.910;2024-01-30T11:40:53;83.47;;;18.65;;
49962;SDS011;36180;57.678;11.910;2024-01-30T11:43:21;63.72;;;15.23;;
49962;SDS011;36180;57.678;11.910;2024-01-30T11:45:48;74.32;;;16.15;;
49962;SDS011;36180;57.678;11.910;2024-01-30T11:48:15;77.00;;;17.77;;
49962;SDS011;36180;57.678;11.910;2024-01-30T11:50:43;90.25;;;18.30;;
49962;SDS011;36180;57.678;11.910;2024-01-30T11:53:10;81.00;;;16.30;;
49962;SDS011;36180;57.678;11.910;2024-01-30T11:55:37;105.80;;;17.98;;
49962;SDS011;36180;57.678;11.910;2024-01-30T11:58:04;92.68;;;17.48;;
49962;SDS011;36180;57.678;11.910;2024-01-30T12:00:31;100.30;;;17.17;;
49962;SDS011;36180;57.678;11.910;2024-01-30T12:02:59;79.85;;;17.25;;
49962;SDS011;36180;57.678;11.910;2024-01-30T12:05:28;135.27;;;18.20;;
49962;SDS011;36180;57.678;11.910;2024-01-30T12:07:55;59.63;;;14.80;;
49962;SDS011;36180;57.678;11.910;2024-01-30T12:10:24;90.18;;;17.75;;
49962;SDS011;36180;57.678;11.910;2024-01-30T12:12:52;71.88;;;15.00;;
49962;SDS011;36180;57.678;11.910;2024-01-30T12:15:19;79.97;;;16.83;;
49962;SDS011;36180;57.678;11.910;2024-01-30T12:17:48;126.82;;;17.63;;
49962;SDS011;36180;57.678;11.910;2024-01-30T12:20:17;166.02;;;20.27;;
49962;SDS011;36180;57.678;11.910;2024-01-30T12:22:46;130.50;;;19.83;;
49962;SDS011;36180;57.678;11.910;2024-01-30T12:25:14;121.35;;;19.42;;
49962;SDS011;36180;57.678;11.910;2024-01-30T12:27:42;102.25;;;18.90;;
49962;SDS011;36180;57.678;11.910;2024-01-30T12:30:11;122.38;;;20.38;;
49962;SDS011;36180;57.678;11.910;2024-01-30T12:32:39;135.82;;;21.45;;
49962;SDS011;36180;57.678;11.910;2024-01-30T12:35:07;161.95;;;22.67;;
49962;SDS011;36180;57.678;11.910;2024-01-30T12:37:35;142.23;;;20.42;;
49962;SDS011;36180;57.678;11.910;2024-01-30T12:40:03;140.13;;;21.35;;
49962;SDS011;36180;57.678;11.910;2024-01-30T12:42:32;155.40;;;21.38;;
49962;SDS011;36180;57.678;11.910;2024-01-30T12:44:59;146.30;;;19.88;;
49962;SDS011;36180;57.678;11.910;2024-01-30T12:47:28;143.98;;;20.67;;
49962;SDS011;36180;57.678;11.910;2024-01-30T12:49:55;202.13;;;22.90;;
49962;SDS011;36180;57.678;11.910;2024-01-30T12:52:22;138.75;;;22.10;;
49962;SDS011;36180;57.678;11.910;2024-01-30T12:54:49;175.02;;;23.67;;
49962;SDS011;36180;57.678;11.910;2024-01-30T12:57:18;119.60;;;23.95;;
49962;SDS011;36180;57.678;11.910;2024-01-30T12:59:45;117.68;;;26.13;;
49962;SDS011;36180;57.678;11.910;2024-01-30T13:02:13;131.43;;;28.90;;
49962;SDS011;36180;57.678;11.910;2024-01-30T13:04:40;126.10;;;29.17;;
49962;SDS011;36180;57.678;11.910;2024-01-30T13:07:07;144.32;;;30.92;;
49962;SDS011;36180;57.678;11.910;2024-01-30T13:09:34;116.30;;;29.88;;
49962;SDS011;36180;57.678;11.910;2024-01-30T13:12:01;116.80;;;31.20;;
49962;SDS011;36180;57.678;11.910;2024-01-30T13:14:30;127.75;;;33.78;;
49962;SDS011;36180;57.678;11.910;2024-01-30T13:16:57;116.43;;;34.13;;
49962;SDS011;36180;57.678;11.910;2024-01-30T13:19:24;141.32;;;36.35;;
49962;SDS011;36180;57.678;11.910;2024-01-30T13:21:51;118.22;;;36.13;;
49962;SDS011;36180;57.678;11.910;2024-01-30T13:24:18;114.00;;;36.50;;
49962;SDS011;36180;57.678;11.910;2024-01-30T13:26:46;106.25;;;33.13;;
49962;SDS011;36180;57.678;11.910;2024-01-30T13:29:13;95.88;;;31.88;;
49962;SDS011;36180;57.678;11.910;2024-01-30T13:31:42;117.60;;;34.47;;
49962;SDS011;36180;57.678;11.910;2024-01-30T13:34:11;102.40;;;32.70;;
49962;SDS011;36180;57.678;11.910;2024-01-30T13:36:39;113.00;;;34.55;;
49962;SDS011;36180;57.678;11.910;2024-01-30T13:39:06;109.80;;;34.97;;
49962;SDS011;36180;57.678;11.910;2024-01-30T13:41:35;105.88;;;35.25;;
49962;SDS011;36180;57.678;11.910;2024-01-30T13:44:02;97.82;;;35.45;;
49962;SDS011;36180;57.678;11.910;2024-01-30T13:46:29;87.20;;;33.33;;
49962;SDS011;36180;57.678;11.910;2024-01-30T13:48:57;101.57;;;34.38;;
49962;SDS011;36180;57.678;11.910;2024-01-30T13:51:24;87.07;;;33.80;;
49962;SDS011;36180;57.678;11.910;2024-01-30T13:53:51;98.57;;;35.78;;
49962;SDS011;36180;57.678;11.910;2024-01-30T13:56:19;91.32;;;35.00;;
49962;SDS011;36180;57.678;11.910;2024-01-30T13:58:47;91.10;;;35.13;;
49962;SDS011;36180;57.678;11.910;2024-01-30T14:01:15;82.13;;;32.80;;
49962;SDS011;36180;57.678;11.910;2024-01-30T14:03:42;89.47;;;35.10;;
49962;SDS011;36180;57.678;11.910;2024-01-30T14:06:10;89.13;;;34.72;;